Time;durP1;ratioP1;P1;durP2;ratioP2;P2;SDS_P1;SDS_P2;PMS_P1;PMS_P2;Temp;Humidity;BMP_temperature;BMP_pressure;BME280_temperature;BME280_humidity;BME280_pressure;Samples;Min_cycle;Max_cycle;Signal;HPM_P1;HPM_P2
2023/03/21 00:02:43;;;;;;;51.43;47.00;;;;;;;-145.53;100.00;64590.91;6285920;28;20442;-65
2023/03/21 00:05:50;;;;;;;51.33;46.83;;;;;;;-145.53;100.00;64590.91;6284811;28;20447;-65
2023/03/21 00:08:54;;;;;;;51.20;46.50;;;;;;;-145.53;100.00;64590.91;6280829;28;20833;-67
2023/03/21 00:12:01;;;;;;;54.50;49.60;;;;;;;-145.53;100.00;64590.91;6280488;28;20442;-66
2023/03/21 00:15:06;;;;;;;54.60;49.90;;;;;;;-145.53;100.00;64590.91;6277015;28;20431;-66
2023/03/21 00:18:10;;;;;;;55.90;50.90;;;;;;;-145.53;100.00;64590.91;6281944;28;20447;-66
2023/03/21 00:21:16;;;;;;;53.90;49.13;;;;;;;-145.53;100.00;64590.91;6274883;28;20446;-65
2023/03/21 00:24:39;;;;;;;55.70;50.70;;;;;;;-145.53;100.00;64590.91;6284997;28;20826;-66
2023/03/21 00:27:45;;;;;;;56.30;51.20;;;;;;;-145.53;100.00;64590.91;6285604;28;20475;-66
2023/03/21 00:31:09;;;;;;;54.00;49.40;;;;;;;-145.53;100.00;64590.91;6283302;28;20529;-64
2023/03/21 00:34:13;;;;;;;57.63;52.63;;;;;;;-145.53;100.00;64590.91;6277125;28;20471;-65
2023/03/21 00:37:17;;;;;;;58.00;52.80;;;;;;;-145.53;100.00;64590.91;6276067;28;20439;-64
2023/03/21 00:40:21;;;;;;;56.27;51.17;;;;;;;-145.53;100.00;64590.91;6279763;28;20451;-66
2023/03/21 00:43:37;;;;;;;54.20;49.30;;;;;;;-145.53;100.00;64590.91;6274461;28;20479;-66
2023/03/21 00:46:40;;;;;;;54.00;49.03;;;;;;;-145.53;100.00;64590.91;6281788;28;20790;-65
2023/03/21 00:49:59;;;;;;;55.50;50.70;;;;;;;-145.53;100.00;64590.91;6284746;28;20423;-65
2023/03/21 00:53:03;;;;;;;53.97;49.27;;;;;;;-145.53;100.00;64590.91;6285070;28;20427;-66
2023/03/21 00:56:08;;;;;;;54.10;49.37;;;;;;;-145.53;100.00;64590.91;6272988;28;20443;-65
2023/03/21 00:59:13;;;;;;;53.07;48.47;;;;;;;-145.53;100.00;64590.91;6283717;28;20462;-66
2023/03/21 01:02:21;;;;;;;57.23;52.13;;;;;;;-145.53;100.00;64590.91;6284379;28;20506;-64
2023/03/21 01:08:44;;;;;;;54.63;49.90;;;;;;;-145.53;100.00;64590.91;6278500;28;20650;-65
2023/03/21 01:11:55;;;;;;;54.73;49.97;;;;;;;-145.53;100.00;64590.91;6283178;28;20432;-66
2023/03/21 01:15:00;;;;;;;55.57;50.60;;;;;;;-145.53;100.00;64590.91;6275464;28;20432;-65
2023/03/21 01:18:04;;;;;;;55.27;50.33;;;;;;;-145.53;100.00;64590.91;6267765;28;20498;-65
2023/03/21 01:21:10;;;;;;;54.40;49.70;;;;;;;-145.53;100.00;64590.91;6271123;28;20794;-66
2023/03/21 01:24:14;;;;;;;56.50;51.37;;;;;;;-145.53;100.00;64590.91;6284192;28;20428;-64
2023/03/21 01:27:18;;;;;;;53.53;48.67;;;;;;;-145.53;100.00;64590.91;6277567;28;20455;-66
2023/03/21 01:30:23;;;;;;;55.77;50.97;;;;;;;-145.53;100.00;64590.91;6273676;28;20470;-66
2023/03/21 01:33:31;;;;;;;55.97;51.17;;;;;;;-145.53;100.00;64590.91;6283494;28;20446;-66
2023/03/21 01:36:35;;;;;;;56.30;51.30;;;;;;;-145.53;100.00;64590.91;6284054;28;20438;-66
2023/03/21 01:39:39;;;;;;;58.33;53.10;;;;;;;-145.53;100.00;64590.91;6274249;28;20443;-65
2023/03/21 01:42:42;;;;;;;54.83;49.73;;;;;;;-145.53;100.00;64590.91;6278219;28;20435;-66
2023/03/21 01:46:31;;;;;;;58.43;53.23;;;;;;;-145.53;100.00;64590.91;6283789;28;20447;-65
2023/03/21 01:49:56;;;;;;;59.33;53.93;;;;;;;-145.53;100.00;64590.91;6273694;28;20482;-64
2023/03/21 01:53:02;;;;;;;57.47;52.50;;;;;;;-145.53;100.00;64590.91;6270375;28;20450;-66
2023/03/21 01:56:11;;;;;;;57.60;52.67;;;;;;;-145.53;100.00;64590.91;6282144;28;20423;-66
2023/03/21 01:59:21;;;;;;;58.10;52.90;;;;;;;-145.53;100.00;64590.91;6284117;28;20438;-66
2023/03/21 02:02:28;;;;;;;57.53;52.33;;;;;;;-145.53;100.00;64590.91;6266623;28;20455;-65
2023/03/21 02:05:41;;;;;;;60.50;54.97;;;;;;;-145.53;100.00;64590.91;6278679;28;20455;-66
2023/03/21 02:08:45;;;;;;;61.87;56.17;;;;;;;-145.53;100.00;64590.91;6283151;28;20428;-65
2023/03/21 02:11:50;;;;;;;60.00;54.57;;;;;;;-145.53;100.00;64590.91;6283794;28;20439;-65
2023/03/21 02:14:55;;;;;;;60.90;55.33;;;;;;;-145.53;100.00;64590.91;6266369;28;20468;-66
2023/03/21 02:18:06;;;;;;;60.83;55.50;;;;;;;-145.53;100.00;64590.91;6275940;28;20435;-66
2023/03/21 02:21:57;;;;;;;61.90;56.43;;;;;;;-145.53;100.00;64590.91;6280920;28;20427;-66
2023/03/21 02:25:19;;;;;;;59.57;54.20;;;;;;;-145.53;100.00;64590.91;6252153;28;20561;-65
2023/03/21 02:28:28;;;;;;;60.17;54.63;;;;;;;-145.53;100.00;64590.91;6277246;28;20542;-66
2023/03/21 02:31:42;;;;;;;59.30;54.00;;;;;;;-145.53;100.00;64590.91;6282093;28;20435;-66
2023/03/21 02:35:06;;;;;;;58.77;53.37;;;;;;;-145.53;100.00;64590.91;6283342;28;20504;-65
2023/03/21 02:38:15;;;;;;;60.90;55.50;;;;;;;-145.53;100.00;64590.91;6265545;28;20443;-65
2023/03/21 02:41:26;;;;;;;58.37;53.10;;;;;;;-145.53;100.00;64590.91;6281507;28;20573;-67
2023/03/21 02:44:45;;;;;;;58.37;53.07;;;;;;;-145.53;100.00;64590.91;6278874;28;20439;-67
2023/03/21 02:47:51;;;;;;;57.23;52.13;;;;;;;-145.53;100.00;64590.91;6269228;28;20815;-66
2023/03/21 02:50:59;;;;;;;57.20;52.00;;;;;;;-145.53;100.00;64590.91;6277131;28;20449;-66
2023/03/21 02:54:09;;;;;;;57.50;52.40;;;;;;;-145.53;100.00;64590.91;6283505;28;20415;-67
2023/03/21 02:57:33;;;;;;;56.83;51.63;;;;;;;-145.53;100.00;64590.91;6283485;28;20478;-66
2023/03/21 03:00:47;;;;;;;54.37;49.57;;;;;;;-145.53;100.00;64590.91;6272281;28;20439;-66
2023/03/21 03:03:50;;;;;;;54.37;49.47;;;;;;;-145.53;100.00;64590.91;6282799;28;20478;-66
2023/03/21 03:07:29;;;;;;;51.17;46.53;;;;;;;-145.53;100.00;64590.91;6282909;28;20585;-66
2023/03/21 03:10:46;;;;;;;50.33;45.87;;;;;;;-145.53;100.00;64590.91;6249867;28;20454;-66
2023/03/21 03:14:18;;;;;;;49.70;45.30;;;;;;;-145.53;100.00;64590.91;6277069;28;20451;-67
2023/03/21 03:17:49;;;;;;;47.83;43.63;;;;;;;-145.53;100.00;64590.91;6271873;28;20436;-66
2023/03/21 03:21:03;;;;;;;47.70;43.60;;;;;;;-145.53;100.00;64590.91;6284185;28;20423;-67
2023/03/21 03:24:12;;;;;;;45.37;41.40;;;;;;;-145.53;100.00;64590.91;6276130;28;21018;-66
2023/03/21 03:27:21;;;;;;;45.10;41.10;;;;;;;-145.53;100.00;64590.91;6286484;28;20427;-67
2023/03/21 03:30:26;;;;;;;44.30;40.30;;;;;;;-145.53;100.00;64590.91;6286427;28;20431;-67
2023/03/21 03:33:47;;;;;;;41.20;37.50;;;;;;;-145.53;100.00;64590.91;6280435;28;20451;-66
2023/03/21 03:36:56;;;;;;;43.77;39.77;;;;;;;-145.53;100.00;64590.91;6285255;28;20442;-66
2023/03/21 03:40:06;;;;;;;41.33;37.73;;;;;;;-145.53;100.00;64590.91;6286592;28;20458;-69
2023/03/21 03:43:18;;;;;;;41.40;37.60;;;;;;;-145.53;100.00;64590.91;6283215;28;20420;-61
2023/03/21 03:46:30;;;;;;;42.00;38.40;;;;;;;-145.53;100.00;64590.91;6269242;28;20533;-61
2023/03/21 03:49:38;;;;;;;37.20;33.97;;;;;;;-145.53;100.00;64590.91;6286253;28;20470;-61
2023/03/21 03:52:47;;;;;;;38.20;34.83;;;;;;;-145.53;100.00;64590.91;6286319;28;20462;-61
2023/03/21 03:56:01;;;;;;;36.77;33.47;;;;;;;-145.53;100.00;64590.91;6278510;28;20927;-61
2023/03/21 03:59:07;;;;;;;35.10;32.10;;;;;;;-145.53;100.00;64590.91;6279694;28;20466;-61
2023/03/21 04:02:10;;;;;;;34.20;31.20;;;;;;;-145.53;100.00;64590.91;6286073;28;20465;-62
2023/03/21 04:05:14;;;;;;;35.40;32.10;;;;;;;-145.53;100.00;64590.91;6282722;28;20444;-61
2023/03/21 04:08:18;;;;;;;33.50;30.60;;;;;;;-145.53;100.00;64590.91;6269386;28;20816;-61
2023/03/21 04:11:22;;;;;;;32.17;29.27;;;;;;;-145.53;100.00;64590.91;6285973;28;20473;-61
2023/03/21 04:14:27;;;;;;;32.40;29.60;;;;;;;-145.53;100.00;64590.91;6283313;28;20893;-62
2023/03/21 04:17:38;;;;;;;32.73;29.80;;;;;;;-145.53;100.00;64590.91;6283233;28;20443;-62
2023/03/21 04:20:43;;;;;;;34.40;31.20;;;;;;;-145.53;100.00;64590.91;6274989;28;20442;-63
2023/03/21 04:23:47;;;;;;;34.63;31.53;;;;;;;-145.53;100.00;64590.91;6274870;28;20420;-66
2023/03/21 04:26:52;;;;;;;35.63;32.23;;;;;;;-145.53;100.00;64590.91;6282714;28;20439;-66
2023/03/21 04:29:58;;;;;;;25.20;22.97;;;;;;;-145.53;100.00;64590.91;6281709;28;20435;-61
2023/03/21 04:33:01;;;;;;;17.20;15.53;;;;;;;-145.53;100.00;64590.91;6273694;28;20443;-61
2023/03/21 04:36:08;;;;;;;18.97;13.80;;;;;;;-145.53;100.00;64590.91;6281138;28;20817;-61
2023/03/21 04:39:12;;;;;;;13.63;11.97;;;;;;;-145.53;100.00;64590.91;6278262;28;20419;-64
2023/03/21 04:42:17;;;;;;;10.17;9.00;;;;;;;-145.53;100.00;64590.91;6274514;28;20454;-63
2023/03/21 04:45:22;;;;;;;11.17;9.30;;;;;;;-145.53;100.00;64590.91;6274190;28;20443;-64
2023/03/21 04:48:26;;;;;;;10.60;9.60;;;;;;;-145.53;100.00;64590.91;6272516;28;20427;-63
2023/03/21 04:51:30;;;;;;;9.60;8.60;;;;;;;-145.53;100.00;64590.91;6278717;28;20443;-63
2023/03/21 04:54:33;;;;;;;10.47;9.47;;;;;;;-145.53;100.00;64590.91;6258036;28;20435;-63
2023/03/21 04:57:37;;;;;;;9.37;8.43;;;;;;;-145.53;100.00;64590.91;6279717;28;20435;-64
2023/03/21 05:00:42;;;;;;;10.30;8.43;;;;;;;-145.53;100.00;64590.91;6276586;28;20522;-63
2023/03/21 05:03:45;;;;;;;9.10;8.40;;;;;;;-145.53;100.00;64590.91;6273991;28;20431;-63
2023/03/21 05:06:48;;;;;;;8.10;7.43;;;;;;;-145.53;100.00;64590.91;6270059;28;20749;-63
2023/03/21 05:09:52;;;;;;;9.37;8.57;;;;;;;-145.53;100.00;64590.91;6275860;28;20568;-62
2023/03/21 05:12:56;;;;;;;8.80;7.90;;;;;;;-145.53;100.00;64590.91;6281306;28;20435;-62
2023/03/21 05:16:01;;;;;;;8.13;7.33;;;;;;;-145.53;100.00;64590.91;6274777;28;20435;-63
2023/03/21 05:19:06;;;;;;;8.53;7.67;;;;;;;-145.53;100.00;64590.91;6281208;28;20470;-64
2023/03/21 05:22:13;;;;;;;10.27;7.87;;;;;;;-145.53;100.00;64590.91;6284883;28;20443;-62
2023/03/21 05:25:33;;;;;;;7.97;7.33;;;;;;;-145.53;100.00;64590.91;6285072;28;20419;-62
2023/03/21 05:28:38;;;;;;;8.10;7.30;;;;;;;-145.53;100.00;64590.91;6273693;28;20441;-63
2023/03/21 05:31:44;;;;;;;10.27;9.27;;;;;;;-145.53;100.00;64590.91;6284525;28;20431;-63
2023/03/21 05:34:48;;;;;;;11.00;9.90;;;;;;;-145.53;100.00;64590.91;6284821;28;20419;-62
2023/03/21 05:37:52;;;;;;;12.67;9.47;;;;;;;-145.53;100.00;64590.91;6284637;28;20466;-63
2023/03/21 05:40:56;;;;;;;9.87;8.87;;;;;;;-145.53;100.00;64590.91;6273786;28;20451;-63
2023/03/21 05:44:00;;;;;;;10.13;8.10;;;;;;;-145.53;100.00;64590.91;6283841;28;20585;-64
2023/03/21 05:47:05;;;;;;;8.77;7.97;;;;;;;-145.53;100.00;64590.91;6284466;28;20431;-62
2023/03/21 05:50:12;;;;;;;8.20;7.40;;;;;;;-145.53;100.00;64590.91;6278458;28;20516;-63
2023/03/21 05:53:15;;;;;;;8.40;7.60;;;;;;;-145.53;100.00;64590.91;6282445;28;20924;-63
2023/03/21 05:56:19;;;;;;;8.60;7.77;;;;;;;-145.53;100.00;64590.91;6284594;28;20443;-63
2023/03/21 05:59:23;;;;;;;8.73;8.03;;;;;;;-145.53;100.00;64590.91;6284449;28;20494;-63
2023/03/21 06:02:28;;;;;;;8.17;7.43;;;;;;;-145.53;100.00;64590.91;6273656;28;20446;-63
2023/03/21 06:05:31;;;;;;;7.80;7.00;;;;;;;-145.53;100.00;64590.91;6284413;28;20818;-64
2023/03/21 06:08:35;;;;;;;8.20;7.37;;;;;;;-145.53;100.00;64590.91;6284287;28;20441;-63
2023/03/21 06:11:44;;;;;;;9.43;8.53;;;;;;;-145.53;100.00;64590.91;6284185;28;20458;-63
2023/03/21 06:14:47;;;;;;;8.87;8.17;;;;;;;-145.53;100.00;64590.91;6273358;28;20446;-63
2023/03/21 06:17:52;;;;;;;9.60;7.80;;;;;;;-145.53;100.00;64590.91;6283687;28;20447;-63
2023/03/21 06:20:56;;;;;;;9.10;8.20;;;;;;;-145.53;100.00;64590.91;6284192;28;20763;-64
2023/03/21 06:24:03;;;;;;;8.10;7.40;;;;;;;-145.53;100.00;64590.91;6279084;28;20550;-63
2023/03/21 06:27:07;;;;;;;8.93;7.73;;;;;;;-145.53;100.00;64590.91;6278893;28;20446;-64
2023/03/21 06:30:11;;;;;;;8.40;7.70;;;;;;;-145.53;100.00;64590.91;6284011;28;20443;-64
2023/03/21 06:33:17;;;;;;;8.07;7.30;;;;;;;-145.53;100.00;64590.91;6283988;28;20435;-63
2023/03/21 06:36:20;;;;;;;7.33;6.73;;;;;;;-145.53;100.00;64590.91;6273004;28;20465;-63
2023/03/21 06:39:24;;;;;;;11.80;8.00;;;;;;;-145.53;100.00;64590.91;6271531;28;20436;-62
2023/03/21 06:42:28;;;;;;;8.97;7.10;;;;;;;-145.53;100.00;64590.91;6259811;28;20436;-62
2023/03/21 06:45:32;;;;;;;7.90;7.20;;;;;;;-145.53;100.00;64590.91;6270512;28;20446;-63
2023/03/21 06:48:43;;;;;;;8.00;7.20;;;;;;;-145.53;100.00;64590.91;6275173;28;20522;-63
2023/03/21 06:51:47;;;;;;;7.40;6.70;;;;;;;-145.53;100.00;64590.91;6285010;28;20446;-63
2023/03/21 06:54:51;;;;;;;7.17;6.63;;;;;;;-145.53;100.00;64590.91;6286244;28;20434;-63
2023/03/21 06:57:54;;;;;;;7.40;6.70;;;;;;;-145.53;100.00;64590.91;6284699;28;20927;-63
2023/03/21 07:00:59;;;;;;;7.20;6.50;;;;;;;-145.53;100.00;64590.91;6283541;28;20447;-63
2023/03/21 07:04:05;;;;;;;7.50;6.90;;;;;;;-145.53;100.00;64590.91;6288758;28;20443;-63
2023/03/21 07:07:08;;;;;;;7.43;6.83;;;;;;;-145.53;100.00;64590.91;6289054;28;20446;-63
2023/03/21 07:10:12;;;;;;;7.67;6.60;;;;;;;-145.53;100.00;64590.91;6277629;28;20455;-63
2023/03/21 07:13:16;;;;;;;7.80;7.10;;;;;;;-145.53;100.00;64590.91;6289041;28;20497;-63
2023/03/21 07:16:21;;;;;;;9.00;6.50;;;;;;;-145.53;100.00;64590.91;6272485;28;20494;-63
2023/03/21 07:19:26;;;;;;;6.80;6.20;;;;;;;-145.53;100.00;64590.91;6263222;28;20443;-63
2023/03/21 07:22:30;;;;;;;7.33;6.50;;;;;;;-145.53;100.00;64590.91;6251970;28;20451;-62
2023/03/21 07:25:34;;;;;;;8.47;6.87;;;;;;;-145.53;100.00;64590.91;6263170;28;20451;-63
2023/03/21 07:28:38;;;;;;;7.67;6.30;;;;;;;-145.53;100.00;64590.91;6262732;28;20515;-62
2023/03/21 07:31:43;;;;;;;8.00;7.40;;;;;;;-145.53;100.00;64590.91;6262605;28;20452;-62
2023/03/21 07:34:48;;;;;;;7.63;6.93;;;;;;;-145.53;100.00;64590.91;6251922;28;20522;-65
2023/03/21 07:37:51;;;;;;;7.73;6.93;;;;;;;-145.53;100.00;64590.91;6262895;28;20599;-63
2023/03/21 07:40:55;;;;;;;9.60;8.37;;;;;;;-145.53;100.00;64590.91;6262789;28;20522;-63
2023/03/21 07:43:59;;;;;;;8.93;8.03;;;;;;;-145.53;100.00;64590.91;6253868;28;20432;-64
2023/03/21 07:47:02;;;;;;;11.27;9.60;;;;;;;-145.53;100.00;64590.91;6283781;28;20517;-64
2023/03/21 07:50:08;;;;;;;15.00;10.60;;;;;;;-145.53;100.00;64590.91;6287210;28;20449;-64
2023/03/21 07:53:12;;;;;;;10.47;9.47;;;;;;;-145.53;100.00;64590.91;6287418;28;20411;-64
2023/03/21 07:56:16;;;;;;;14.90;10.63;;;;;;;-145.53;100.00;64590.91;6276314;28;20439;-64
2023/03/21 07:59:19;;;;;;;13.20;11.30;;;;;;;-145.53;100.00;64590.91;6287388;28;20494;-64
2023/03/21 08:02:24;;;;;;;12.97;11.67;;;;;;;-145.53;100.00;64590.91;6286833;28;20979;-64
2023/03/21 08:05:34;;;;;;;10.60;9.60;;;;;;;-145.53;100.00;64590.91;6286868;28;20509;-64
2023/03/21 08:08:37;;;;;;;12.50;11.30;;;;;;;-145.53;100.00;64590.91;6274325;28;20563;-65
2023/03/21 08:11:41;;;;;;;16.47;12.33;;;;;;;-145.53;100.00;64590.91;6261903;28;20455;-66
2023/03/21 08:14:45;;;;;;;15.07;12.23;;;;;;;-145.53;100.00;64590.91;6264479;28;20462;-65
2023/03/21 08:17:48;;;;;;;16.30;13.10;;;;;;;-145.53;100.00;64590.91;6281211;28;21055;-65
2023/03/21 08:20:55;;;;;;;16.07;12.50;;;;;;;-145.53;100.00;64590.91;6280735;28;20924;-66
2023/03/21 08:23:58;;;;;;;13.27;11.77;;;;;;;-145.53;100.00;64590.91;6286625;28;20916;-65
2023/03/21 08:27:02;;;;;;;12.40;11.20;;;;;;;-145.53;100.00;64590.91;6286334;28;20497;-65
2023/03/21 08:30:07;;;;;;;13.20;11.97;;;;;;;-145.53;100.00;64590.91;6275574;28;20443;-65
2023/03/21 08:33:12;;;;;;;15.00;11.93;;;;;;;-145.53;100.00;64590.91;6285968;28;20486;-65
2023/03/21 08:36:17;;;;;;;13.50;11.70;;;;;;;-145.53;100.00;64590.91;6286089;28;20450;-65
2023/03/21 08:39:20;;;;;;;13.00;11.40;;;;;;;-145.53;100.00;64590.91;6286190;28;20435;-66
2023/03/21 08:42:25;;;;;;;13.77;11.87;;;;;;;-145.53;100.00;64590.91;6274768;28;20446;-65
2023/03/21 08:45:28;;;;;;;13.40;12.17;;;;;;;-145.53;100.00;64590.91;6285658;28;20448;-65
2023/03/21 08:48:32;;;;;;;13.83;12.27;;;;;;;-145.53;100.00;64590.91;6285671;28;20815;-65
2023/03/21 08:51:37;;;;;;;11.93;10.83;;;;;;;-145.53;100.00;64590.91;6281254;28;20496;-65
2023/03/21 08:54:43;;;;;;;13.50;12.30;;;;;;;-145.53;100.00;64590.91;6280418;28;20518;-65
2023/03/21 08:57:47;;;;;;;13.70;12.50;;;;;;;-145.53;100.00;64590.91;6285939;28;20447;-66
2023/03/21 09:00:51;;;;;;;14.80;13.37;;;;;;;-145.53;100.00;64590.91;6285575;28;20510;-66
2023/03/21 09:03:55;;;;;;;14.77;13.30;;;;;;;-145.53;100.00;64590.91;6274737;28;20447;-65
2023/03/21 09:07:03;;;;;;;16.87;14.17;;;;;;;-145.53;100.00;64590.91;6285389;28;20511;-65
2023/03/21 09:10:11;;;;;;;17.70;16.10;;;;;;;-145.53;100.00;64590.91;6285336;28;20531;-65
2023/03/21 09:13:24;;;;;;;16.20;14.60;;;;;;;-145.53;100.00;64590.91;6285335;28;20485;-65
2023/03/21 09:16:28;;;;;;;14.73;13.23;;;;;;;-145.53;100.00;64590.91;6257794;28;20451;-65
2023/03/21 09:19:33;;;;;;;16.30;14.70;;;;;;;-145.53;100.00;64590.91;6259695;28;20451;-65
2023/03/21 09:22:39;;;;;;;20.30;15.90;;;;;;;-145.53;100.00;64590.91;6260615;28;20440;-60
2023/03/21 09:25:46;;;;;;;20.60;16.40;;;;;;;-145.53;100.00;64590.91;6256024;28;20455;-60
2023/03/21 09:28:50;;;;;;;18.87;15.27;;;;;;;-145.53;100.00;64590.91;6254077;28;20448;-61
2023/03/21 09:31:54;;;;;;;17.47;15.80;;;;;;;-145.53;100.00;64590.91;6260075;28;20965;-61
2023/03/21 09:34:58;;;;;;;18.60;16.10;;;;;;;-145.53;100.00;64590.91;6260201;28;20447;-61
2023/03/21 09:38:04;;;;;;;17.47;15.73;;;;;;;-145.53;100.00;64590.91;6249549;28;20444;-61
2023/03/21 09:41:21;;;;;;;22.63;17.47;;;;;;;-145.53;100.00;64590.91;6260269;28;20412;-61
2023/03/21 09:44:37;;;;;;;18.90;16.77;;;;;;;-145.53;100.00;64590.91;6260089;28;20777;-61
2023/03/21 09:47:51;;;;;;;17.83;15.97;;;;;;;-145.53;100.00;64590.91;6260045;28;20905;-61
2023/03/21 09:50:56;;;;;;;17.60;15.90;;;;;;;-145.53;100.00;64590.91;6249903;28;20440;-61
2023/03/21 09:54:06;;;;;;;22.43;18.00;;;;;;;-145.53;100.00;64590.91;6259927;28;20530;-61
2023/03/21 09:57:20;;;;;;;19.77;17.57;;;;;;;-145.53;100.00;64590.91;6260165;28;20810;-61
2023/03/21 10:00:29;;;;;;;19.50;17.57;;;;;;;-145.53;100.00;64590.91;6251789;28;20452;-61
2023/03/21 10:03:35;;;;;;;20.63;16.20;;;;;;;-145.53;100.00;64590.91;6261679;28;20455;-61
2023/03/21 10:06:41;;;;;;;22.10;16.00;;;;;;;-145.53;100.00;64590.91;6259831;28;20428;-61
2023/03/21 10:09:48;;;;;;;17.77;16.03;;;;;;;-145.53;100.00;64590.91;6259563;28;20941;-61
2023/03/21 10:12:53;;;;;;;17.50;15.60;;;;;;;-145.53;100.00;64590.91;6248220;28;20448;-61
2023/03/21 10:16:00;;;;;;;16.63;14.83;;;;;;;-145.53;100.00;64590.91;6259525;28;20452;-61
2023/03/21 10:19:12;;;;;;;16.57;14.70;;;;;;;-145.53;100.00;64590.91;6259283;28;20501;-61
2023/03/21 10:22:16;;;;;;;16.53;14.93;;;;;;;-145.53;100.00;64590.91;6259670;28;20936;-61
2023/03/21 10:25:26;;;;;;;17.53;15.73;;;;;;;-145.53;100.00;64590.91;6249146;28;20849;-60
2023/03/21 10:28:33;;;;;;;15.87;14.27;;;;;;;-145.53;100.00;64590.91;6259353;28;20435;-60
2023/03/21 10:31:55;;;;;;;17.07;15.30;;;;;;;-145.53;100.00;64590.91;6259223;28;20944;-61
2023/03/21 10:35:00;;;;;;;17.13;15.30;;;;;;;-145.53;100.00;64590.91;6247921;28;20451;-61
2023/03/21 10:38:06;;;;;;;15.87;14.47;;;;;;;-145.53;100.00;64590.91;6259108;28;20416;-61
2023/03/21 10:41:11;;;;;;;13.93;12.57;;;;;;;-145.53;100.00;64590.91;6259011;28;20420;-61
2023/03/21 10:44:18;;;;;;;15.17;13.77;;;;;;;-145.53;100.00;64590.91;6258962;28;20439;-61
2023/03/21 10:47:25;;;;;;;15.93;14.33;;;;;;;-145.53;100.00;64590.91;6271337;28;20435;-61
2023/03/21 10:50:30;;;;;;;14.40;13.00;;;;;;;-145.53;100.00;64590.91;6283691;28;20801;-60
2023/03/21 10:53:38;;;;;;;13.50;11.80;;;;;;;-145.53;100.00;64590.91;6283517;28;20532;-61
2023/03/21 10:56:52;;;;;;;12.70;11.50;;;;;;;-145.53;100.00;64590.91;6279031;28;20424;-60
2023/03/21 10:59:59;;;;;;;12.50;11.17;;;;;;;-145.53;100.00;64590.91;6277910;28;21033;-61
2023/03/21 11:03:04;;;;;;;12.97;11.67;;;;;;;-145.53;100.00;64590.91;6267321;28;20450;-60
2023/03/21 11:06:13;;;;;;;11.67;10.40;;;;;;;-145.53;100.00;64590.91;6258727;28;20819;-60
2023/03/21 11:09:20;;;;;;;10.73;9.83;;;;;;;-145.53;100.00;64590.91;6247685;28;20545;-60
2023/03/21 11:12:36;;;;;;;10.17;8.93;;;;;;;-145.53;100.00;64590.91;6258435;28;20440;-60
2023/03/21 11:15:46;;;;;;;10.40;9.23;;;;;;;-145.53;100.00;64590.91;6267557;28;20801;-60
2023/03/21 11:18:52;;;;;;;9.80;8.80;;;;;;;-145.53;100.00;64590.91;6283079;28;20435;-60
2023/03/21 11:21:57;;;;;;;9.83;8.83;;;;;;;-145.53;100.00;64590.91;6272190;28;20439;-60
2023/03/21 11:25:02;;;;;;;10.40;9.33;;;;;;;-145.53;100.00;64590.91;6283291;28;20490;-60
2023/03/21 11:28:12;;;;;;;8.73;7.93;;;;;;;-145.53;100.00;64590.91;6283228;28;20430;-60
2023/03/21 11:31:16;;;;;;;9.10;8.20;;;;;;;-145.53;100.00;64590.91;6277478;28;20498;-60
2023/03/21 11:34:31;;;;;;;10.30;9.40;;;;;;;-145.53;100.00;64590.91;6278870;28;20473;-60
2023/03/21 11:37:43;;;;;;;9.63;8.83;;;;;;;-145.53;100.00;64590.91;6283179;28;20419;-59
2023/03/21 11:40:54;;;;;;;9.50;8.27;;;;;;;-145.53;100.00;64590.91;6283123;28;20424;-60
2023/03/21 11:44:00;;;;;;;9.00;8.20;;;;;;;-145.53;100.00;64590.91;6276210;28;20457;-61
2023/03/21 11:47:04;;;;;;;9.07;8.17;;;;;;;-145.53;100.00;64590.91;6266648;28;20432;-61
2023/03/21 11:50:27;;;;;;;8.67;7.87;;;;;;;-145.53;100.00;64590.91;6262175;28;20432;-60
2023/03/21 11:53:41;;;;;;;8.60;7.80;;;;;;;-145.53;100.00;64590.91;6258522;28;20443;-61
2023/03/21 11:56:47;;;;;;;9.33;7.97;;;;;;;-145.53;100.00;64590.91;6256276;28;20440;-60
2023/03/21 12:00:00;;;;;;;8.73;7.93;;;;;;;-145.53;100.00;64590.91;6262280;28;20921;-61
2023/03/21 12:03:26;;;;;;;9.30;7.80;;;;;;;-145.53;100.00;64590.91;6261911;28;20444;-60
2023/03/21 12:06:38;;;;;;;8.10;7.37;;;;;;;-145.53;100.00;64590.91;6252213;28;20873;-60
2023/03/21 12:09:45;;;;;;;7.90;7.20;;;;;;;-145.53;100.00;64590.91;6262053;28;20807;-60
2023/03/21 12:12:56;;;;;;;7.03;6.33;;;;;;;-145.53;100.00;64590.91;6261887;28;20812;-60
2023/03/21 12:16:19;;;;;;;7.80;7.00;;;;;;;-145.53;100.00;64590.91;6273300;28;20443;-60
2023/03/21 12:19:43;;;;;;;7.83;6.73;;;;;;;-145.53;100.00;64590.91;6280645;28;20458;-60
2023/03/21 12:23:00;;;;;;;6.73;6.10;;;;;;;-145.53;100.00;64590.91;6286341;28;20438;-60
2023/03/21 12:26:19;;;;;;;7.10;6.50;;;;;;;-145.53;100.00;64590.91;6286533;28;20432;-60
2023/03/21 12:29:40;;;;;;;7.70;7.00;;;;;;;-145.53;100.00;64590.91;6275301;28;20440;-66
2023/03/21 12:32:59;;;;;;;7.90;7.10;;;;;;;-145.53;100.00;64590.91;6286186;28;20529;-66
2023/03/21 12:36:18;;;;;;;7.40;6.80;;;;;;;-145.53;100.00;64590.91;6286295;28;20546;-66
2023/03/21 12:39:29;;;;;;;7.20;6.60;;;;;;;-145.53;100.00;64590.91;6281025;28;20905;-64
2023/03/21 12:43:00;;;;;;;7.93;7.23;;;;;;;-145.53;100.00;64590.91;6281988;28;20443;-66
2023/03/21 12:46:12;;;;;;;8.13;7.37;;;;;;;-145.53;100.00;64590.91;6273618;28;20463;-64
2023/03/21 12:49:23;;;;;;;8.03;7.10;;;;;;;-145.53;100.00;64590.91;6261339;28;20923;-64
2023/03/21 12:52:31;;;;;;;7.20;6.60;;;;;;;-145.53;100.00;64590.91;6249774;28;20859;-64
2023/03/21 12:55:36;;;;;;;9.97;9.17;;;;;;;-145.53;100.00;64590.91;6261203;28;20425;-64
2023/03/21 12:58:47;;;;;;;8.00;7.30;;;;;;;-145.53;100.00;64590.91;6261027;28;20960;-64
2023/03/21 13:01:53;;;;;;;7.90;7.30;;;;;;;-145.53;100.00;64590.91;6255976;28;20929;-67
2023/03/21 13:05:07;;;;;;;7.20;6.60;;;;;;;-145.53;100.00;64590.91;6255347;28;20867;-64
2023/03/21 13:08:17;;;;;;;6.87;6.27;;;;;;;-145.53;100.00;64590.91;6261175;28;20431;-64
2023/03/21 13:11:25;;;;;;;7.20;6.60;;;;;;;-145.53;100.00;64590.91;6260904;28;20424;-64
2023/03/21 13:14:34;;;;;;;7.33;6.63;;;;;;;-145.53;100.00;64590.91;6250339;28;21120;-64
2023/03/21 13:17:48;;;;;;;7.50;6.60;;;;;;;-145.53;100.00;64590.91;6284757;28;20434;-65
2023/03/21 13:21:08;;;;;;;7.13;6.43;;;;;;;-145.53;100.00;64590.91;6285374;28;20482;-65
2023/03/21 13:24:35;;;;;;;7.40;6.67;;;;;;;-145.53;100.00;64590.91;6285069;28;20798;-64
2023/03/21 13:27:46;;;;;;;7.23;6.60;;;;;;;-145.53;100.00;64590.91;6279479;28;20436;-64
2023/03/21 13:31:25;;;;;;;7.13;6.30;;;;;;;-145.53;100.00;64590.91;6285059;28;20916;-64
2023/03/21 13:34:56;;;;;;;6.90;6.30;;;;;;;-145.53;100.00;64590.91;6285008;28;20428;-64
2023/03/21 13:38:17;;;;;;;6.17;5.67;;;;;;;-145.53;100.00;64590.91;6274418;28;20431;-64
2023/03/21 13:41:34;;;;;;;6.50;6.00;;;;;;;-145.53;100.00;64590.91;6284900;28;20501;-65
2023/03/21 13:44:50;;;;;;;6.40;5.90;;;;;;;-145.53;100.00;64590.91;6285055;28;20427;-64
2023/03/21 13:47:57;;;;;;;6.80;6.17;;;;;;;-145.53;100.00;64590.91;6253137;28;20444;-64
2023/03/21 13:51:03;;;;;;;6.40;5.90;;;;;;;-145.53;100.00;64590.91;6258700;28;20444;-61
2023/03/21 13:54:28;;;;;;;6.90;6.27;;;;;;;-145.53;100.00;64590.91;6259842;28;20463;-61
2023/03/21 13:57:41;;;;;;;5.90;5.30;;;;;;;-145.53;100.00;64590.91;6259963;28;20433;-61
2023/03/21 14:01:23;;;;;;;6.03;5.53;;;;;;;-145.53;100.00;64590.91;6249254;28;21034;-61
2023/03/21 14:04:35;;;;;;;6.40;5.80;;;;;;;-145.53;100.00;64590.91;6259159;28;20465;-61
2023/03/21 14:07:57;;;;;;;6.43;5.83;;;;;;;-145.53;100.00;64590.91;6259421;28;20556;-61
2023/03/21 14:11:20;;;;;;;6.50;5.90;;;;;;;-145.53;100.00;64590.91;6248349;28;20448;-60